Time;durP1;ratioP1;P1;durP2;ratioP2;P2;SDS_P1;SDS_P2;PMS_P1;PMS_P2;Temp;Humidity;BMP_temperature;BMP_pressure;BME280_temperature;BME280_humidity;BME280_pressure;Samples;Min_cycle;Max_cycle;Signal;HPM_P1;HPM_P2
2022/08/25 00:02:54;;;;;;;4.70;2.90;;;19.80;99.90;;;;;;20926686;28;20061;-79
2022/08/25 00:12:55;;;;;;;3.28;2.60;;;19.80;99.90;;;;;;20923873;28;20044;-79
2022/08/25 00:22:56;;;;;;;2.63;2.43;;;19.80;99.90;;;;;;20932732;28;20033;-79
2022/08/25 00:32:57;;;;;;;5.77;2.80;;;19.60;99.90;;;;;;20930128;28;20039;-80
2022/08/25 00:42:57;;;;;;;2.60;2.13;;;19.60;99.90;;;;;;20944046;28;20029;-77
2022/08/25 00:53:01;;;;;;;4.40;2.60;;;19.50;99.90;;;;;;20939912;28;20039;-79
2022/08/25 01:03:03;;;;;;;3.15;2.63;;;19.40;99.90;;;;;;20942872;28;20059;-77
2022/08/25 01:13:53;;;;;;;3.05;2.40;;;19.20;99.90;;;;;;20884261;28;20040;-78
2022/08/25 01:23:57;;;;;;;5.90;2.55;;;19.00;99.90;;;;;;20818142;28;20038;-77
2022/08/25 01:33:58;;;;;;;4.20;2.65;;;18.80;99.90;;;;;;20818107;28;20033;-79
2022/08/25 01:44:00;;;;;;;5.88;3.03;;;18.70;99.90;;;;;;20780693;28;20044;-80
2022/08/25 01:54:01;;;;;;;5.43;3.03;;;18.50;99.90;;;;;;20769996;28;20030;-79
2022/08/25 02:04:02;;;;;;;3.70;2.97;;;18.20;99.90;;;;;;20771940;28;20037;-79
2022/08/25 02:14:03;;;;;;;7.35;3.03;;;18.10;99.90;;;;;;20848946;28;20064;-78
2022/08/25 02:24:05;;;;;;;3.43;2.73;;;18.20;99.90;;;;;;20834016;28;20030;-78
2022/08/25 02:34:07;;;;;;;4.70;3.08;;;18.00;99.90;;;;;;20814400;28;20303;-79
2022/08/25 02:44:08;;;;;;;3.67;3.03;;;17.80;99.90;;;;;;20808594;28;20029;-79
2022/08/25 02:54:09;;;;;;;5.43;2.87;;;17.50;99.90;;;;;;20812223;28;20030;-79
2022/08/25 03:04:11;;;;;;;4.93;2.57;;;17.50;99.90;;;;;;20817327;28;20025;-77
2022/08/25 03:14:12;;;;;;;5.28;3.55;;;17.50;99.90;;;;;;20820570;28;20061;-78
2022/08/25 03:24:13;;;;;;;3.47;2.83;;;17.40;99.90;;;;;;20815070;28;20026;-80
2022/08/25 03:34:16;;;;;;;4.70;2.60;;;16.90;99.90;;;;;;20807952;28;20022;-80
2022/08/25 03:44:18;;;;;;;5.03;2.60;;;16.90;99.90;;;;;;20802766;28;20404;-78
2022/08/25 03:54:22;;;;;;;6.65;3.03;;;16.80;99.90;;;;;;20804979;28;20077;-77
2022/08/25 04:04:23;;;;;;;5.50;4.15;;;16.30;99.90;;;;;;20806331;28;20328;-79
2022/08/25 04:14:24;;;;;;;4.47;3.23;;;16.20;99.90;;;;;;20805843;28;20057;-78
2022/08/25 04:24:25;;;;;;;4.93;3.47;;;16.40;99.90;;;;;;20820486;28;20288;-79
2022/08/25 04:34:26;;;;;;;5.80;3.80;;;16.40;99.90;;;;;;20813948;28;20079;-75
2022/08/25 04:44:29;;;;;;;4.53;2.92;;;16.40;99.90;;;;;;20826839;28;20565;-75
2022/08/25 04:54:30;;;;;;;7.32;3.00;;;16.70;99.90;;;;;;20826327;28;20373;-76
2022/08/25 05:04:32;;;;;;;7.10;3.23;;;16.70;99.90;;;;;;20832801;28;20033;-76
2022/08/25 05:14:33;;;;;;;3.42;2.92;;;16.70;99.90;;;;;;20822103;28;20041;-76
2022/08/25 05:24:34;;;;;;;6.10;3.43;;;16.80;99.90;;;;;;20817300;28;20029;-76
2022/08/25 05:34:35;;;;;;;5.33;3.47;;;17.00;99.90;;;;;;20785366;28;20488;-75
2022/08/25 05:44:35;;;;;;;8.40;3.70;;;17.30;99.90;;;;;;20877969;23;20434;-72
2022/08/25 05:54:37;;;;;;;6.00;4.43;;;17.50;99.90;;;;;;20924338;28;20087;-72
2022/08/25 06:04:38;;;;;;;6.97;4.57;;;17.70;99.90;;;;;;20918243;28;20395;-72
2022/08/25 06:14:39;;;;;;;8.07;5.00;;;17.70;99.90;;;;;;20916833;28;20021;-72
2022/08/25 06:24:40;;;;;;;6.70;4.20;;;18.10;99.90;;;;;;20916127;28;20258;-71
2022/08/25 06:34:40;;;;;;;5.60;3.83;;;18.60;99.90;;;;;;20916135;28;20131;-72
2022/08/25 06:44:41;;;;;;;4.57;3.47;;;19.00;99.90;;;;;;20916236;28;20585;-72
2022/08/25 06:54:42;;;;;;;4.50;3.60;;;19.20;99.90;;;;;;20916120;28;20041;-72
2022/08/25 07:04:43;;;;;;;4.33;3.47;;;19.70;99.90;;;;;;20913386;28;20622;-72
2022/08/25 07:14:44;;;;;;;6.90;3.30;;;20.20;99.90;;;;;;20911815;28;20032;-72
2022/08/25 07:24:45;;;;;;;5.07;3.43;;;21.20;99.90;;;;;;20911337;28;20028;-73
2022/08/25 07:45:06;;;;;;;6.00;3.28;;;22.20;99.90;;;;;;20910407;28;20037;-72
2022/08/25 07:55:07;;;;;;;5.43;3.00;;;23.10;99.90;;;;;;20909765;28;20521;-73
2022/08/25 08:05:09;;;;;;;5.10;2.72;;;24.10;99.90;;;;;;20909551;28;20487;-73
2022/08/25 08:15:11;;;;;;;5.50;2.83;;;24.70;99.90;;;;;;20908955;28;20450;-72
2022/08/25 08:25:12;;;;;;;5.13;2.63;;;25.50;99.90;;;;;;20908780;28;20058;-73
2022/08/25 08:35:14;;;;;;;2.72;2.28;;;25.70;99.90;;;;;;20908297;28;20131;-73
2022/08/25 08:45:21;;;;;;;3.20;2.25;;;26.30;99.90;;;;;;20905740;28;20098;-73
2022/08/25 08:55:36;;;;;;;3.47;2.33;;;26.90;99.90;;;;;;20913921;28;20032;-73
2022/08/25 09:05:47;;;;;;;3.42;2.05;;;28.00;99.90;;;;;;20922735;28;20025;-73
2022/08/25 09:26:23;;;;;;;4.25;2.17;;;27.60;99.90;;;;;;20921094;28;20029;-73
2022/08/25 09:36:25;;;;;;;3.17;2.28;;;28.70;99.90;;;;;;20918957;28;20023;-73
2022/08/25 09:46:28;;;;;;;3.55;2.00;;;28.80;99.90;;;;;;20918148;28;20082;-73
2022/08/25 09:56:32;;;;;;;2.45;2.05;;;29.50;99.90;;;;;;20918584;28;20033;-73
2022/08/25 10:06:41;;;;;;;4.63;2.80;;;29.60;99.90;;;;;;20916620;28;20411;-72
2022/08/25 10:16:43;;;;;;;3.55;1.80;;;30.40;99.90;;;;;;20916741;28;20438;-73
2022/08/25 10:26:48;;;;;;;2.90;1.92;;;31.50;99.90;;;;;;20916397;28;20098;-74
2022/08/25 10:37:22;;;;;;;2.97;2.10;;;32.00;99.90;;;;;;20915412;28;20097;-73
2022/08/25 10:48:07;;;;;;;6.28;1.95;;;31.90;99.90;;;;;;20827061;28;20041;-73
2022/08/25 10:58:10;;;;;;;5.22;1.65;;;31.70;99.90;;;;;;20506033;28;20450;-73
2022/08/25 11:08:32;;;;;;;4.75;2.00;;;32.90;99.90;;;;;;20564703;28;20047;-75
2022/08/25 11:18:36;;;;;;;8.07;2.40;;;33.10;99.90;;;;;;20486803;28;20066;-74
2022/08/25 11:29:10;;;;;;;4.13;2.10;;;33.30;99.90;;;;;;20731969;28;20049;-75
2022/08/25 11:39:23;;;;;;;3.17;1.70;;;33.00;99.90;;;;;;20841521;23;20072;-83
2022/08/25 11:49:33;;;;;;;1.98;1.70;;;31.30;99.90;;;;;;20918760;23;20096;-76
2022/08/25 12:00:04;;;;;;;1.67;1.25;;;32.50;99.90;;;;;;20907675;28;20048;-74
2022/08/25 12:10:11;;;;;;;2.33;1.60;;;31.70;99.90;;;;;;20907770;28;20124;-75
2022/08/25 12:20:13;;;;;;;5.07;1.88;;;31.90;99.20;;;;;;20834454;28;20053;-75
2022/08/25 12:31:05;;;;;;;2.95;1.30;;;33.00;97.50;;;;;;20822642;28;20037;-74
2022/08/25 12:41:13;;;;;;;3.47;0.90;;;33.50;96.30;;;;;;20811657;28;20463;-76
2022/08/25 12:51:20;;;;;;;5.28;1.05;;;32.60;94.20;;;;;;20823437;28;20616;-75
2022/08/25 13:01:35;;;;;;;1.77;1.05;;;33.30;94.00;;;;;;20834285;28;20028;-75
2022/08/25 13:11:42;;;;;;;2.35;1.30;;;33.20;92.70;;;;;;20883743;28;20041;-75
2022/08/25 13:21:43;;;;;;;1.75;1.23;;;32.80;91.90;;;;;;20891384;28;20040;-74
2022/08/25 13:31:59;;;;;;;2.05;1.10;;;33.10;92.00;;;;;;20903675;28;20037;-76
2022/08/25 13:42:03;;;;;;;4.28;1.73;;;33.00;91.30;;;;;;20879980;28;20029;-77
2022/08/25 13:52:05;;;;;;;2.83;1.20;;;32.50;91.50;;;;;;20873832;28;20037;-76
2022/08/25 14:02:09;;;;;;;2.45;1.50;;;32.10;91.10;;;;;;20874780;28;20029;-76
2022/08/25 14:12:45;;;;;;;5.45;1.30;;;31.70;91.30;;;;;;20903209;28;20021;-77
2022/08/25 14:22:45;;;;;;;2.28;1.15;;;32.00;91.00;;;;;;20833120;28;20041;-77
2022/08/25 14:32:46;;;;;;;4.55;1.48;;;31.90;91.10;;;;;;20839189;28;20025;-77
2022/08/25 14:42:48;;;;;;;3.33;1.38;;;32.00;91.10;;;;;;20835674;28;20053;-77
2022/08/25 14:52:48;;;;;;;2.17;1.23;;;32.20;90.50;;;;;;20915491;28;20036;-77
2022/08/25 15:02:50;;;;;;;3.50;1.35;;;32.10;90.20;;;;;;20892614;28;20439;-77
2022/08/25 15:12:51;;;;;;;2.20;1.30;;;31.90;90.70;;;;;;20836100;28;20036;-73
2022/08/25 15:22:52;;;;;;;2.30;1.30;;;31.90;91.10;;;;;;20867743;28;20120;-74
2022/08/25 15:32:53;;;;;;;4.45;1.75;;;31.30;90.70;;;;;;20911333;28;20106;-74
2022/08/25 15:42:53;;;;;;;1.77;1.10;;;31.70;91.40;;;;;;20855442;28;20034;-75
2022/08/25 15:52:54;;;;;;;2.75;1.33;;;31.80;90.10;;;;;;20827797;28;20037;-75
2022/08/25 16:02:55;;;;;;;2.63;1.27;;;31.70;90.40;;;;;;20826642;28;20476;-74
2022/08/25 16:12:56;;;;;;;6.13;1.15;;;31.50;90.30;;;;;;20825799;28;20163;-75
2022/08/25 16:22:59;;;;;;;1.70;1.13;;;30.90;91.60;;;;;;20825159;28;20139;-74
2022/08/25 16:33:00;;;;;;;2.00;1.38;;;30.70;91.90;;;;;;20867738;28;20283;-74
2022/08/25 16:43:01;;;;;;;4.40;1.52;;;30.30;92.40;;;;;;20857775;28;20060;-78
2022/08/25 17:03:21;;;;;;;3.63;1.67;;;29.80;93.60;;;;;;20867262;28;20025;-78
2022/08/25 17:13:22;;;;;;;1.42;0.93;;;29.70;93.80;;;;;;20870649;28;20116;-77
2022/08/25 17:23:23;;;;;;;2.58;1.30;;;29.50;94.50;;;;;;20925354;28;20021;-78
2022/08/25 17:33:24;;;;;;;5.75;1.98;;;29.30;94.60;;;;;;20926254;28;20032;-78
2022/08/25 17:43:26;;;;;;;2.03;1.20;;;29.00;95.20;;;;;;20919536;22;20040;-81
2022/08/25 17:53:27;;;;;;;1.90;1.40;;;28.60;96.00;;;;;;20929477;28;20120;-80
2022/08/25 18:03:28;;;;;;;2.90;1.77;;;28.20;96.40;;;;;;20919465;28;20127;-81
2022/08/25 18:13:30;;;;;;;6.53;1.50;;;27.50;98.40;;;;;;20915283;28;20037;-81
2022/08/25 18:23:31;;;;;;;3.42;1.55;;;26.80;99.80;;;;;;20855329;28;20109;-80
2022/08/25 18:33:32;;;;;;;1.98;1.60;;;26.00;99.90;;;;;;20841936;28;20030;-82
2022/08/25 18:43:33;;;;;;;2.03;1.60;;;25.30;99.90;;;;;;20883898;28;20430;-81
2022/08/25 18:53:35;;;;;;;9.77;1.85;;;25.30;99.90;;;;;;20840992;28;20033;-79
2022/08/25 19:03:35;;;;;;;7.47;2.47;;;24.40;99.90;;;;;;20836834;28;20530;-78
2022/08/25 19:13:38;;;;;;;7.03;2.00;;;23.90;99.90;;;;;;20829653;28;20030;-80
2022/08/25 19:23:39;;;;;;;5.47;2.88;;;23.60;99.90;;;;;;20855424;28;20790;-81
2022/08/25 19:33:40;;;;;;;5.90;2.13;;;23.20;99.90;;;;;;20846018;28;20069;-80
2022/08/25 19:43:43;;;;;;;2.58;2.00;;;22.60;99.90;;;;;;20875924;28;20034;-80
2022/08/25 19:53:45;;;;;;;3.05;2.03;;;22.20;99.90;;;;;;20918548;28;20045;-81
2022/08/25 20:03:46;;;;;;;3.42;2.17;;;21.80;99.90;;;;;;20904798;28;20052;-81
2022/08/25 20:13:47;;;;;;;3.53;1.80;;;21.90;99.90;;;;;;20870157;28;20037;-81
2022/08/25 20:34:07;;;;;;;5.13;1.85;;;21.10;99.90;;;;;;20779357;28;20322;-80
2022/08/25 20:44:08;;;;;;;2.13;1.70;;;20.70;99.90;;;;;;20867537;28;20051;-80
2022/08/25 20:54:12;;;;;;;3.80;2.20;;;21.40;99.90;;;;;;20875022;28;20036;-80
2022/08/25 21:04:15;;;;;;;2.50;2.10;;;21.50;99.90;;;;;;20857965;28;20424;-80
2022/08/25 21:14:16;;;;;;;2.90;2.33;;;21.00;99.90;;;;;;20839647;28;20061;-79
2022/08/25 21:24:18;;;;;;;2.80;2.00;;;21.20;99.90;;;;;;20880416;28;20479;-81
2022/08/25 21:34:19;;;;;;;2.72;1.98;;;21.10;99.90;;;;;;20881380;28;20068;-80
2022/08/25 21:44:20;;;;;;;2.47;1.98;;;20.80;99.90;;;;;;20876872;28;20025;-80
2022/08/25 21:54:21;;;;;;;3.90;2.30;;;20.20;99.90;;;;;;20871278;28;20511;-78
2022/08/25 22:04:22;;;;;;;2.80;2.27;;;20.30;99.90;;;;;;20913296;28;20041;-79
2022/08/25 22:14:23;;;;;;;4.20;2.40;;;20.20;99.90;;;;;;20877711;28;20495;-80
2022/08/25 22:24:24;;;;;;;;;;;20.30;99.90;;;;;;20886482;28;20464;-79
2022/08/25 22:34:25;;;;;;;5.85;2.13;;;20.20;99.90;;;;;;20825522;28;19963;-79
2022/08/25 22:44:27;;;;;;;2.37;2.10;;;20.20;99.90;;;;;;20840861;28;20544;-79
2022/08/25 22:54:27;;;;;;;3.43;2.50;;;19.70;99.90;;;;;;20841111;28;20087;-80
2022/08/25 23:04:28;;;;;;;2.57;2.10;;;19.60;99.90;;;;;;20839990;28;20077;-79
2022/08/25 23:14:35;;;;;;;2.97;2.30;;;19.90;99.90;;;;;;20835843;28;20107;-79
2022/08/25 23:24:42;;;;;;;2.63;2.10;;;20.00;99.90;;;;;;20854599;28;20113;-79
2022/08/25 23:34:43;;;;;;;5.28;2.47;;;20.00;99.90;;;;;;20839035;28;20026;-79
2022/08/25 23:44:44;;;;;;;2.67;2.17;;;19.90;99.90;;;;;;20888576;23;20052;-76
2022/08/25 23:54:45;;;;;;;4.93;2.40;;;19.30;99.90;;;;;;20910054;28;20588;-77
